Time;durP1;ratioP1;P1;durP2;ratioP2;P2;SDS_P1;SDS_P2;PMS_P1;PMS_P2;Temp;Humidity;BMP_temperature;BMP_pressure;BME280_temperature;BME280_humidity;BME280_pressure;Samples;Min_cycle;Max_cycle;Signal;HPM_P1;HPM_P2
2024/03/15 00:00:42;;;;;;;1.98;1.70;;;10.60;99.90;;;;;;5048500;28;20299;-74
2024/03/15 00:03:10;;;;;;;2.03;1.92;;;10.60;99.90;;;;;;5041790;28;20229;-74
2024/03/15 00:05:37;;;;;;;2.60;2.22;;;10.60;99.90;;;;;;5051123;28;20209;-73
2024/03/15 00:08:04;;;;;;;5.43;2.08;;;10.60;99.90;;;;;;5053076;28;20216;-75
2024/03/15 00:10:31;;;;;;;4.28;2.20;;;10.60;99.90;;;;;;5051803;28;20208;-73
2024/03/15 00:13:03;;;;;;;2.92;2.50;;;10.50;99.90;;;;;;5039771;28;20228;-74
2024/03/15 00:15:29;;;;;;;2.58;2.35;;;10.50;99.90;;;;;;5053621;28;20219;-75
2024/03/15 00:17:56;;;;;;;3.08;2.30;;;10.50;99.90;;;;;;5052226;28;20243;-74
2024/03/15 00:20:23;;;;;;;2.65;2.20;;;10.50;99.90;;;;;;5051765;28;20204;-74
2024/03/15 00:22:50;;;;;;;2.45;2.25;;;10.60;99.90;;;;;;5051473;28;20259;-73
2024/03/15 00:25:18;;;;;;;2.20;2.00;;;10.60;99.90;;;;;;5052560;28;20250;-74
2024/03/15 00:27:45;;;;;;;2.50;2.15;;;10.60;99.90;;;;;;5050733;28;20201;-74
2024/03/15 00:30:13;;;;;;;2.35;2.03;;;10.60;99.90;;;;;;5041445;28;20209;-74
2024/03/15 00:32:40;;;;;;;3.72;2.42;;;10.60;99.90;;;;;;5050886;28;20242;-74
2024/03/15 00:35:08;;;;;;;5.85;2.60;;;10.60;99.90;;;;;;5040624;28;20205;-73
2024/03/15 00:37:35;;;;;;;2.15;1.95;;;10.60;99.90;;;;;;5048618;28;20217;-74
2024/03/15 00:40:02;;;;;;;4.75;2.47;;;10.60;99.90;;;;;;5039255;28;20244;-74
2024/03/15 00:42:29;;;;;;;2.10;1.80;;;10.60;99.90;;;;;;5048658;28;20229;-74
2024/03/15 00:44:57;;;;;;;1.98;1.80;;;10.60;99.90;;;;;;5045568;28;20654;-74
2024/03/15 00:47:24;;;;;;;2.30;2.08;;;10.60;99.90;;;;;;5042299;28;20250;-74
2024/03/15 00:49:51;;;;;;;3.28;1.90;;;10.50;99.90;;;;;;5044571;28;20696;-74
2024/03/15 00:52:18;;;;;;;3.58;2.70;;;10.60;99.90;;;;;;5046494;28;20224;-74
2024/03/15 00:54:46;;;;;;;3.17;2.55;;;10.60;99.90;;;;;;5050628;28;20204;-74
2024/03/15 00:57:13;;;;;;;2.17;1.95;;;10.60;99.90;;;;;;5040693;28;20252;-74
2024/03/15 00:59:40;;;;;;;2.45;2.20;;;10.60;99.90;;;;;;5051695;28;20217;-73
2024/03/15 01:02:07;;;;;;;2.78;2.10;;;10.60;99.90;;;;;;5038759;28;20332;-74
2024/03/15 01:04:34;;;;;;;3.90;2.70;;;10.60;99.90;;;;;;5049027;28;20216;-75
2024/03/15 01:07:01;;;;;;;2.55;2.35;;;10.50;99.90;;;;;;5046116;28;20201;-74
2024/03/15 01:09:29;;;;;;;2.38;2.00;;;10.50;99.90;;;;;;5051726;28;20205;-75
2024/03/15 01:11:56;;;;;;;2.72;2.40;;;10.50;99.90;;;;;;5051654;28;20235;-75
2024/03/15 01:14:23;;;;;;;2.20;2.00;;;10.50;99.90;;;;;;5051883;28;20228;-73
2024/03/15 01:16:49;;;;;;;2.67;2.38;;;10.50;99.90;;;;;;5051503;28;20790;-74
2024/03/15 01:19:16;;;;;;;3.13;1.95;;;10.50;99.90;;;;;;5051953;28;20201;-74
2024/03/15 01:21:43;;;;;;;3.55;2.30;;;10.50;99.90;;;;;;5050516;28;20229;-74
2024/03/15 01:24:12;;;;;;;2.55;2.20;;;10.50;99.90;;;;;;5039125;28;20209;-74
2024/03/15 01:26:39;;;;;;;2.30;2.05;;;10.50;99.90;;;;;;5051865;28;20205;-74
2024/03/15 01:29:07;;;;;;;2.03;1.83;;;10.50;99.90;;;;;;5038058;28;20255;-75
2024/03/15 01:31:34;;;;;;;1.88;1.75;;;10.60;99.90;;;;;;5047953;28;20674;-74
2024/03/15 01:34:01;;;;;;;2.80;2.40;;;10.60;99.90;;;;;;5047340;28;20211;-74
2024/03/15 01:36:29;;;;;;;2.67;2.17;;;10.60;99.90;;;;;;5044785;28;20705;-74
2024/03/15 01:38:55;;;;;;;2.67;2.47;;;10.60;99.90;;;;;;5046381;28;20593;-74
2024/03/15 01:41:22;;;;;;;2.10;1.90;;;10.60;99.90;;;;;;5043186;28;20221;-74
2024/03/15 01:43:49;;;;;;;2.88;2.67;;;10.60;99.90;;;;;;5046757;28;20205;-74
2024/03/15 01:46:16;;;;;;;2.58;2.17;;;10.60;99.90;;;;;;5042592;28;20597;-74
2024/03/15 01:48:44;;;;;;;2.50;2.22;;;10.60;99.90;;;;;;5054841;28;20204;-73
2024/03/15 01:51:11;;;;;;;3.03;2.72;;;10.60;99.90;;;;;;5040686;28;20225;-74
2024/03/15 01:53:37;;;;;;;1.95;1.55;;;10.50;99.90;;;;;;5051554;28;20299;-74
2024/03/15 01:56:04;;;;;;;2.35;2.15;;;10.60;99.90;;;;;;5046219;28;20583;-74
2024/03/15 01:58:31;;;;;;;2.53;2.33;;;10.50;99.90;;;;;;5044065;28;20225;-74
2024/03/15 02:00:58;;;;;;;2.17;2.00;;;10.50;99.90;;;;;;5045091;28;20216;-74
2024/03/15 02:03:25;;;;;;;2.63;2.33;;;10.50;99.90;;;;;;5043090;28;20215;-74
2024/03/15 02:05:51;;;;;;;2.97;2.00;;;10.40;99.90;;;;;;5045760;28;20558;-74
2024/03/15 02:08:19;;;;;;;2.25;2.05;;;10.40;99.90;;;;;;5041954;28;20207;-74
2024/03/15 02:10:45;;;;;;;3.97;2.28;;;10.30;99.90;;;;;;5050715;28;20622;-74
2024/03/15 02:13:13;;;;;;;2.45;2.25;;;10.20;99.90;;;;;;5049008;28;20224;-74
2024/03/15 02:15:41;;;;;;;2.55;2.35;;;10.20;99.90;;;;;;5051303;28;20678;-74
2024/03/15 02:18:08;;;;;;;2.30;1.95;;;10.20;99.90;;;;;;5045648;28;20305;-74
2024/03/15 02:20:35;;;;;;;2.03;1.85;;;10.20;99.90;;;;;;5043476;28;20213;-73
2024/03/15 02:23:03;;;;;;;1.73;1.63;;;10.10;99.90;;;;;;5045316;28;20258;-74
2024/03/15 02:25:30;;;;;;;2.40;2.20;;;10.10;99.90;;;;;;5043360;28;20224;-74
2024/03/15 02:27:57;;;;;;;2.80;2.35;;;10.10;99.90;;;;;;5045036;28;20677;-74
2024/03/15 02:30:25;;;;;;;1.95;1.65;;;10.10;99.90;;;;;;5042135;28;20232;-74
2024/03/15 02:32:52;;;;;;;2.30;2.10;;;10.10;99.90;;;;;;5044758;28;20262;-74
2024/03/15 02:35:19;;;;;;;1.83;1.70;;;10.10;99.90;;;;;;5041327;28;20209;-74
2024/03/15 02:37:47;;;;;;;1.92;1.80;;;10.10;99.90;;;;;;5051024;28;20263;-74
2024/03/15 02:40:14;;;;;;;2.67;1.90;;;10.00;99.90;;;;;;5040108;28;20312;-74
2024/03/15 02:42:42;;;;;;;2.75;2.53;;;10.00;99.90;;;;;;5050531;28;20316;-74
2024/03/15 02:45:09;;;;;;;2.88;2.00;;;10.00;99.90;;;;;;5044613;28;20214;-75
2024/03/15 02:47:39;;;;;;;2.60;2.03;;;9.90;99.90;;;;;;5042972;28;20211;-74
2024/03/15 02:50:06;;;;;;;1.77;1.67;;;9.90;99.90;;;;;;5044200;28;20209;-74
2024/03/15 02:52:33;;;;;;;2.10;1.90;;;9.90;99.90;;;;;;5042030;28;20251;-75
2024/03/15 02:55:00;;;;;;;2.10;1.92;;;9.90;99.90;;;;;;5045013;28;20212;-74
2024/03/15 02:57:30;;;;;;;5.40;2.65;;;9.90;99.90;;;;;;5042703;28;20225;-74
2024/03/15 02:59:57;;;;;;;2.22;1.95;;;9.90;99.90;;;;;;5044367;28;20205;-74
2024/03/15 03:02:24;;;;;;;2.90;2.28;;;9.90;99.90;;;;;;5040433;28;20696;-74
2024/03/15 03:04:51;;;;;;;1.95;1.55;;;9.80;99.90;;;;;;5043578;28;20247;-74
2024/03/15 03:07:18;;;;;;;2.67;2.05;;;9.80;99.90;;;;;;5039887;28;20201;-74
2024/03/15 03:09:46;;;;;;;1.55;1.45;;;9.70;99.90;;;;;;5050345;28;20224;-74
2024/03/15 03:12:13;;;;;;;2.35;1.88;;;9.70;99.90;;;;;;5049500;28;20612;-73
2024/03/15 03:14:40;;;;;;;1.83;1.70;;;9.70;99.90;;;;;;5054005;28;20200;-74
2024/03/15 03:17:07;;;;;;;2.38;2.17;;;9.60;99.90;;;;;;5053563;28;20681;-74
2024/03/15 03:19:34;;;;;;;2.35;1.50;;;9.60;99.90;;;;;;5053524;28;20227;-74
2024/03/15 03:22:01;;;;;;;2.00;1.60;;;9.60;99.90;;;;;;5052943;28;20263;-74
2024/03/15 03:24:27;;;;;;;3.13;1.92;;;9.60;99.90;;;;;;5053814;28;20204;-74
2024/03/15 03:26:55;;;;;;;2.58;1.85;;;9.60;99.90;;;;;;5053451;28;20657;-74
2024/03/15 03:29:22;;;;;;;2.50;2.15;;;9.50;99.90;;;;;;5053477;28;20221;-74
2024/03/15 03:31:49;;;;;;;2.35;1.80;;;9.50;99.90;;;;;;5042428;28;20320;-74
2024/03/15 03:34:16;;;;;;;2.25;1.70;;;9.50;99.90;;;;;;5042464;28;20208;-74
2024/03/15 03:36:43;;;;;;;1.98;1.60;;;9.50;99.90;;;;;;5045842;28;20310;-74
2024/03/15 03:39:10;;;;;;;2.58;1.83;;;9.40;99.90;;;;;;5041677;28;20237;-74
2024/03/15 03:41:37;;;;;;;2.53;1.85;;;9.40;99.90;;;;;;5040279;28;20267;-74
2024/03/15 03:44:04;;;;;;;1.67;1.58;;;9.50;99.90;;;;;;5041815;28;20600;-74
2024/03/15 03:46:33;;;;;;;2.33;1.85;;;9.50;99.90;;;;;;5039743;28;20208;-73
2024/03/15 03:49:00;;;;;;;1.90;1.70;;;9.60;99.90;;;;;;5041883;28;20205;-74
2024/03/15 03:51:27;;;;;;;2.25;1.95;;;9.60;99.90;;;;;;5038370;28;20221;-74
2024/03/15 03:53:54;;;;;;;1.58;1.40;;;9.80;99.90;;;;;;5041517;28;20688;-73
2024/03/15 03:56:21;;;;;;;3.38;1.90;;;9.90;99.90;;;;;;5043104;28;20207;-74
2024/03/15 03:58:48;;;;;;;3.05;2.08;;;9.90;99.90;;;;;;5046336;28;20219;-73
2024/03/15 04:01:15;;;;;;;3.15;2.28;;;9.90;99.90;;;;;;5045727;28;20212;-74
2024/03/15 04:03:42;;;;;;;1.50;1.40;;;9.90;99.90;;;;;;5046757;28;20209;-74
2024/03/15 04:06:09;;;;;;;1.73;1.35;;;9.90;99.90;;;;;;5047201;28;20614;-74
2024/03/15 04:08:36;;;;;;;1.48;1.38;;;10.00;99.90;;;;;;5049985;28;20647;-74
2024/03/15 04:11:04;;;;;;;2.90;1.52;;;9.90;99.90;;;;;;5055591;28;20202;-74
2024/03/15 04:13:31;;;;;;;2.55;1.70;;;9.90;99.90;;;;;;5047657;28;20598;-74
2024/03/15 04:15:57;;;;;;;2.60;1.63;;;9.90;99.90;;;;;;5048127;28;20715;-74
2024/03/15 04:18:25;;;;;;;2.20;1.90;;;9.90;99.90;;;;;;5045732;28;20220;-74
2024/03/15 04:20:52;;;;;;;2.58;1.55;;;9.90;99.90;;;;;;5047421;28;20200;-74
2024/03/15 04:23:20;;;;;;;3.13;2.00;;;9.90;99.90;;;;;;5048617;28;20204;-74
2024/03/15 04:25:48;;;;;;;2.05;1.85;;;9.90;99.90;;;;;;5045452;28;20209;-74
2024/03/15 04:28:18;;;;;;;1.70;1.60;;;9.80;99.90;;;;;;5059272;28;20474;-73
2024/03/15 04:30:45;;;;;;;1.83;1.50;;;9.80;99.90;;;;;;5045849;28;20201;-73
2024/03/15 04:33:12;;;;;;;2.47;1.70;;;9.80;99.90;;;;;;5045883;28;20220;-73
2024/03/15 04:35:40;;;;;;;2.10;1.38;;;9.80;99.90;;;;;;5046231;28;20204;-73
2024/03/15 04:38:08;;;;;;;2.25;1.70;;;9.90;99.90;;;;;;5052462;28;20224;-73
2024/03/15 04:40:35;;;;;;;2.20;1.80;;;9.90;99.90;;;;;;5052402;28;20700;-73
2024/03/15 04:43:02;;;;;;;4.07;1.75;;;9.90;99.90;;;;;;5052187;28;20240;-73
2024/03/15 04:45:29;;;;;;;1.40;1.30;;;10.00;99.90;;;;;;5052833;28;20204;-73
2024/03/15 04:47:57;;;;;;;5.00;2.05;;;10.00;99.90;;;;;;5052826;28;20576;-73
2024/03/15 04:50:24;;;;;;;1.63;1.52;;;10.00;99.90;;;;;;5052559;28;20750;-73
2024/03/15 04:52:53;;;;;;;2.45;1.40;;;10.00;99.90;;;;;;5052406;28;20224;-73
2024/03/15 04:55:20;;;;;;;1.30;1.20;;;10.10;99.90;;;;;;5052593;28;20211;-73
2024/03/15 04:57:47;;;;;;;1.67;1.58;;;10.10;99.90;;;;;;5052633;28;20204;-73
2024/03/15 05:00:18;;;;;;;1.52;1.20;;;10.10;99.90;;;;;;5052240;28;20208;-73
2024/03/15 05:02:46;;;;;;;1.60;1.48;;;10.10;99.90;;;;;;5049021;28;20245;-72
2024/03/15 05:05:14;;;;;;;1.90;1.55;;;10.10;99.90;;;;;;5039114;28;20241;-73
2024/03/15 05:07:41;;;;;;;1.60;1.50;;;10.10;99.90;;;;;;5041444;28;20205;-73
2024/03/15 05:10:08;;;;;;;2.20;1.60;;;10.10;99.90;;;;;;5042272;28;20251;-73
2024/03/15 05:12:35;;;;;;;1.65;1.55;;;10.10;99.90;;;;;;5040583;28;20268;-73
2024/03/15 05:15:03;;;;;;;3.40;1.88;;;10.20;99.90;;;;;;5048520;28;20215;-73
2024/03/15 05:17:30;;;;;;;1.80;1.67;;;10.10;99.90;;;;;;5057763;28;20658;-73
2024/03/15 05:19:57;;;;;;;1.83;1.60;;;10.10;99.90;;;;;;5055939;28;20217;-72
2024/03/15 05:22:24;;;;;;;1.65;1.55;;;10.10;99.90;;;;;;5055348;28;20228;-73
2024/03/15 05:24:52;;;;;;;1.52;1.15;;;10.10;99.90;;;;;;5056343;28;20709;-73
2024/03/15 05:27:18;;;;;;;1.20;1.10;;;10.20;99.90;;;;;;5055877;28;20594;-73
2024/03/15 05:29:45;;;;;;;2.10;1.90;;;10.20;99.90;;;;;;5052745;28;20204;-72
2024/03/15 05:32:12;;;;;;;3.63;2.03;;;10.20;99.90;;;;;;5042245;28;20237;-73
2024/03/15 05:34:39;;;;;;;1.52;1.42;;;10.10;99.90;;;;;;5040730;28;20587;-73
2024/03/15 05:37:06;;;;;;;1.30;1.20;;;10.10;99.90;;;;;;5041180;28;20213;-72
2024/03/15 05:39:34;;;;;;;1.67;1.50;;;10.10;99.90;;;;;;5039023;28;20225;-73
2024/03/15 05:42:00;;;;;;;1.40;1.30;;;10.00;99.90;;;;;;5041083;28;20253;-72
2024/03/15 05:44:27;;;;;;;1.50;1.40;;;10.00;99.90;;;;;;5041020;28;20204;-73
2024/03/15 05:46:58;;;;;;;2.60;1.60;;;10.00;99.90;;;;;;5041451;28;20224;-73
2024/03/15 05:49:25;;;;;;;1.75;1.42;;;9.90;99.90;;;;;;5040850;28;20201;-73
2024/03/15 05:51:51;;;;;;;1.50;1.40;;;10.00;99.90;;;;;;5040546;28;20229;-73
2024/03/15 05:54:18;;;;;;;1.23;1.10;;;10.00;99.90;;;;;;5040381;28;20669;-73
2024/03/15 05:56:45;;;;;;;1.70;1.60;;;10.00;99.90;;;;;;5040475;28;20205;-72
2024/03/15 05:59:12;;;;;;;2.28;1.25;;;10.00;99.90;;;;;;5039941;28;20615;-73
2024/03/15 06:01:40;;;;;;;2.13;1.40;;;9.90;99.90;;;;;;5038852;28;20712;-72
2024/03/15 06:04:06;;;;;;;1.50;1.40;;;9.90;99.90;;;;;;5040240;28;20209;-72
2024/03/15 06:06:35;;;;;;;1.20;1.00;;;10.00;99.90;;;;;;5038372;28;20201;-73
2024/03/15 06:09:04;;;;;;;2.25;1.70;;;10.00;99.90;;;;;;5040467;28;20205;-72
2024/03/15 06:11:31;;;;;;;1.40;1.30;;;10.00;99.90;;;;;;5039790;28;20225;-72
2024/03/15 06:13:58;;;;;;;2.00;1.30;;;10.00;99.90;;;;;;5040116;28;20209;-72
2024/03/15 06:16:26;;;;;;;1.80;1.48;;;10.00;99.90;;;;;;5039496;28;20205;-73
2024/03/15 06:18:53;;;;;;;1.85;1.48;;;10.00;99.90;;;;;;5039301;28;20623;-72
2024/03/15 06:21:20;;;;;;;1.98;1.20;;;10.00;99.90;;;;;;5038692;28;20308;-73
2024/03/15 06:23:47;;;;;;;1.75;1.60;;;10.00;99.90;;;;;;5039524;28;20234;-73
2024/03/15 06:26:14;;;;;;;1.65;1.52;;;10.00;99.90;;;;;;5039143;28;20231;-73
2024/03/15 06:28:41;;;;;;;1.92;1.25;;;10.00;99.90;;;;;;5038361;28;20198;-73
2024/03/15 06:31:08;;;;;;;2.20;1.60;;;10.00;99.90;;;;;;5038490;28;20204;-72
2024/03/15 06:33:35;;;;;;;2.75;2.03;;;10.00;99.90;;;;;;5037392;28;20208;-72
2024/03/15 06:36:03;;;;;;;3.38;1.52;;;10.00;99.90;;;;;;5038938;28;20219;-72
2024/03/15 06:38:40;;;;;;;1.65;1.40;;;10.00;99.90;;;;;;5038680;28;20686;-72
2024/03/15 06:41:13;;;;;;;1.60;1.50;;;10.00;99.90;;;;;;5039777;28;20219;-73
2024/03/15 06:43:42;;;;;;;1.50;1.40;;;10.00;99.90;;;;;;5054599;28;20201;-72
2024/03/15 06:46:09;;;;;;;1.85;1.60;;;10.00;99.90;;;;;;5054769;28;20212;-71
2024/03/15 06:48:47;;;;;;;1.58;1.40;;;10.00;99.90;;;;;;5054639;28;20231;-72
2024/03/15 06:54:01;;;;;;;2.55;1.50;;;10.10;99.90;;;;;;5031276;28;20596;-72
2024/03/15 06:56:28;;;;;;;2.28;1.60;;;10.10;99.90;;;;;;5053966;28;20208;-72
2024/03/15 06:58:55;;;;;;;2.35;1.45;;;10.30;99.90;;;;;;5054051;28;20235;-72
2024/03/15 07:01:21;;;;;;;2.20;1.27;;;10.40;99.90;;;;;;5053351;28;20237;-72
2024/03/15 07:03:48;;;;;;;1.20;1.10;;;10.50;99.90;;;;;;5054147;28;20576;-72
2024/03/15 07:06:20;;;;;;;1.88;1.75;;;10.60;99.90;;;;;;5054113;28;20470;-72
2024/03/15 07:08:49;;;;;;;2.22;1.80;;;10.80;99.90;;;;;;5054907;28;20572;-72
2024/03/15 07:11:16;;;;;;;3.60;1.70;;;11.00;99.90;;;;;;5053447;28;20228;-73
2024/03/15 07:13:42;;;;;;;1.70;1.60;;;11.20;99.90;;;;;;5053946;28;20577;-72
2024/03/15 07:16:09;;;;;;;2.33;1.50;;;11.70;99.90;;;;;;5040716;28;20205;-72
2024/03/15 07:18:37;;;;;;;1.97;1.33;;;12.00;99.90;;;;;;5036357;28;20212;-73
2024/03/15 07:21:04;;;;;;;2.03;1.80;;;12.40;99.90;;;;;;5036056;28;20462;-72
2024/03/15 07:23:31;;;;;;;1.93;1.63;;;12.90;99.90;;;;;;5036547;28;20980;-72
2024/03/15 07:25:58;;;;;;;1.87;1.37;;;13.30;99.90;;;;;;5036840;28;20459;-72
2024/03/15 07:28:25;;;;;;;2.10;1.70;;;13.60;99.90;;;;;;5035904;28;20459;-72
2024/03/15 07:30:52;;;;;;;2.00;1.50;;;13.80;99.90;;;;;;5034910;28;20462;-72
2024/03/15 07:33:18;;;;;;;2.20;1.43;;;14.00;99.90;;;;;;5036145;28;20464;-72
2024/03/15 07:35:46;;;;;;;1.63;1.30;;;14.40;99.90;;;;;;5035892;28;20456;-72
2024/03/15 07:38:13;;;;;;;1.73;1.60;;;14.80;99.90;;;;;;5036258;28;20463;-72
2024/03/15 07:40:40;;;;;;;1.50;1.40;;;15.10;99.90;;;;;;5051830;28;20474;-73
2024/03/15 07:43:08;;;;;;;1.63;1.53;;;15.60;99.90;;;;;;5053534;28;20470;-72
2024/03/15 07:45:35;;;;;;;2.77;1.50;;;15.60;99.90;;;;;;5053426;28;20491;-72
2024/03/15 07:48:02;;;;;;;1.60;1.40;;;16.00;99.90;;;;;;5040992;28;20466;-72
2024/03/15 07:50:30;;;;;;;2.13;1.80;;;16.40;99.90;;;;;;5034818;28;20456;-72
2024/03/15 07:52:57;;;;;;;1.50;1.40;;;16.40;99.90;;;;;;5035439;28;20476;-72
2024/03/15 07:55:24;;;;;;;2.50;1.40;;;16.60;99.90;;;;;;5035068;28;20460;-72
2024/03/15 07:57:50;;;;;;;1.53;1.43;;;16.90;99.90;;;;;;5035224;28;20544;-73
2024/03/15 08:00:18;;;;;;;2.00;1.43;;;17.00;99.90;;;;;;5034756;28;20494;-72
2024/03/15 08:02:45;;;;;;;2.63;1.90;;;16.80;99.90;;;;;;5034122;28;20486;-72
2024/03/15 08:05:13;;;;;;;1.83;1.50;;;17.00;99.90;;;;;;5034982;28;20452;-72
2024/03/15 08:07:41;;;;;;;1.60;1.50;;;17.10;99.90;;;;;;5034595;28;20460;-72
2024/03/15 08:10:10;;;;;;;2.60;2.20;;;17.70;99.90;;;;;;5034704;28;20498;-72
2024/03/15 08:12:39;;;;;;;2.47;1.60;;;18.10;99.90;;;;;;5034112;28;21402;-73
2024/03/15 08:15:07;;;;;;;4.97;1.70;;;18.70;99.90;;;;;;5034910;28;20859;-73
2024/03/15 08:17:35;;;;;;;1.70;1.60;;;19.30;99.90;;;;;;5034314;28;20464;-72
2024/03/15 08:20:03;;;;;;;2.53;1.93;;;19.20;99.90;;;;;;5034265;28;21003;-73
2024/03/15 08:22:32;;;;;;;1.90;1.40;;;19.00;99.90;;;;;;5030614;28;20518;-73
2024/03/15 08:24:59;;;;;;;2.17;1.50;;;19.00;99.90;;;;;;5048474;28;20466;-73
2024/03/15 08:27:29;;;;;;;3.03;1.77;;;19.00;99.90;;;;;;5049806;28;20455;-73
2024/03/15 08:29:56;;;;;;;2.70;1.57;;;19.00;99.90;;;;;;5052873;28;20455;-72
2024/03/15 08:32:23;;;;;;;2.00;1.50;;;19.40;99.90;;;;;;5051911;28;20860;-72
2024/03/15 08:34:50;;;;;;;2.33;1.40;;;19.40;99.90;;;;;;5052809;28;20836;-73
2024/03/15 08:37:17;;;;;;;2.67;1.60;;;19.90;99.90;;;;;;5052857;28;20451;-73
2024/03/15 08:39:44;;;;;;;2.00;1.30;;;20.40;99.90;;;;;;5051275;28;20494;-74
2024/03/15 08:42:12;;;;;;;1.40;1.30;;;21.00;99.90;;;;;;5054856;28;20995;-73
2024/03/15 08:44:40;;;;;;;2.20;1.63;;;21.60;99.90;;;;;;5055069;28;20834;-73
2024/03/15 08:47:07;;;;;;;1.63;1.40;;;22.20;99.20;;;;;;5056636;28;20469;-73
2024/03/15 08:49:35;;;;;;;1.20;1.10;;;21.50;99.10;;;;;;5053704;28;20491;-73
2024/03/15 08:52:04;;;;;;;1.70;1.60;;;21.10;99.70;;;;;;5043364;28;20806;-73
2024/03/15 08:54:33;;;;;;;1.67;1.50;;;21.30;99.70;;;;;;5036580;28;20460;-73
2024/03/15 08:57:01;;;;;;;1.93;1.70;;;21.90;99.20;;;;;;5042665;28;20455;-73
2024/03/15 08:59:33;;;;;;;1.70;1.30;;;22.40;98.50;;;;;;5055725;28;20488;-73
2024/03/15 09:02:00;;;;;;;2.07;1.50;;;22.20;98.60;;;;;;5056259;28;20540;-73
2024/03/15 09:04:30;;;;;;;1.60;1.13;;;22.20;98.30;;;;;;5055986;28;20463;-73
2024/03/15 09:06:58;;;;;;;2.17;1.40;;;23.10;98.50;;;;;;5056385;28;20466;-73
2024/03/15 09:09:32;;;;;;;2.23;1.40;;;24.00;98.00;;;;;;5055420;28;20465;-73
2024/03/15 09:11:59;;;;;;;1.60;1.17;;;24.70;96.50;;;;;;5056868;28;20470;-73
2024/03/15 09:14:29;;;;;;;1.93;1.20;;;24.70;96.00;;;;;;5055818;28;21049;-74
2024/03/15 09:16:56;;;;;;;2.03;1.37;;;24.60;96.00;;;;;;5056210;28;20831;-73
2024/03/15 09:19:25;;;;;;;2.00;1.30;;;24.90;95.20;;;;;;5055829;28;20465;-73
2024/03/15 09:21:54;;;;;;;1.70;1.50;;;24.80;94.80;;;;;;5059502;28;20476;-73
2024/03/15 09:24:22;;;;;;;1.20;1.10;;;24.90;94.90;;;;;;5048245;28;20516;-73
2024/03/15 09:26:49;;;;;;;1.90;1.33;;;25.10;94.90;;;;;;5055813;28;20527;-73
2024/03/15 09:29:18;;;;;;;2.13;1.40;;;25.60;94.80;;;;;;5055593;28;20490;-74
2024/03/15 09:31:51;;;;;;;2.40;1.57;;;26.30;93.90;;;;;;5052568;28;20478;-73
2024/03/15 09:34:21;;;;;;;1.27;1.17;;;26.30;93.20;;;;;;5047907;28;20456;-73
2024/03/15 09:36:49;;;;;;;1.40;1.30;;;26.00;93.50;;;;;;5051576;28;20474;-73
2024/03/15 09:39:16;;;;;;;1.30;1.20;;;26.00;93.30;;;;;;5046679;28;20459;-73
2024/03/15 09:41:44;;;;;;;1.33;1.23;;;25.80;93.30;;;;;;5050943;28;20487;-73
2024/03/15 09:44:13;;;;;;;1.70;1.60;;;25.20;93.10;;;;;;5045937;28;21014;-73
2024/03/15 09:46:40;;;;;;;1.97;1.50;;;24.30;93.80;;;;;;5051842;28;20455;-73
2024/03/15 09:49:07;;;;;;;2.70;1.50;;;23.90;94.60;;;;;;5045291;28;20463;-73
2024/03/15 09:51:34;;;;;;;1.50;1.13;;;24.60;94.30;;;;;;5051548;28;20479;-73
2024/03/15 09:54:02;;;;;;;3.07;2.07;;;25.30;93.80;;;;;;5043459;28;20463;-72
2024/03/15 09:56:29;;;;;;;1.30;1.20;;;26.10;93.80;;;;;;5051970;28;20916;-73
2024/03/15 09:58:57;;;;;;;1.33;1.23;;;27.00;92.20;;;;;;5043282;28;20839;-73
2024/03/15 10:01:23;;;;;;;1.20;1.10;;;26.70;92.30;;;;;;5051574;28;20493;-73
2024/03/15 10:03:50;;;;;;;2.00;1.23;;;26.40;91.80;;;;;;5050249;28;20466;-74
2024/03/15 10:06:17;;;;;;;1.73;1.50;;;26.80;92.30;;;;;;5046241;28;20847;-73
2024/03/15 10:08:44;;;;;;;1.93;1.20;;;26.20;91.80;;;;;;5049795;28;20854;-72
2024/03/15 10:11:11;;;;;;;1.70;1.60;;;24.60;93.10;;;;;;5052582;28;20835;-73
2024/03/15 10:13:38;;;;;;;1.63;1.33;;;23.30;94.00;;;;;;5051386;28;20455;-73
2024/03/15 10:16:05;;;;;;;1.30;1.20;;;22.10;95.10;;;;;;5043427;28;20455;-73
2024/03/15 10:18:34;;;;;;;1.73;1.43;;;21.20;96.00;;;;;;5054175;28;20505;-72
2024/03/15 10:21:01;;;;;;;2.43;1.50;;;20.50;96.90;;;;;;5047614;28;20821;-73
2024/03/15 10:23:28;;;;;;;1.87;1.30;;;19.60;97.40;;;;;;5054504;28;20459;-72
2024/03/15 10:25:55;;;;;;;2.13;1.10;;;19.10;98.00;;;;;;5054680;28;20463;-73
2024/03/15 10:28:25;;;;;;;1.53;1.20;;;18.70;98.10;;;;;;5049700;28;20459;-73
2024/03/15 10:30:52;;;;;;;1.27;1.00;;;18.30;98.60;;;;;;5050929;28;20807;-72
2024/03/15 10:33:19;;;;;;;2.47;1.20;;;18.20;98.90;;;;;;5052737;28;20880;-72
2024/03/15 10:35:46;;;;;;;1.47;1.20;;;18.10;99.00;;;;;;5048624;28;20454;-72
2024/03/15 10:38:14;;;;;;;1.33;1.23;;;17.90;99.50;;;;;;5048822;28;20478;-72
2024/03/15 10:40:41;;;;;;;1.40;1.00;;;17.70;99.90;;;;;;5052590;28;21015;-73
2024/03/15 10:43:09;;;;;;;1.33;1.00;;;17.50;99.90;;;;;;5043164;28;20483;-73
2024/03/15 10:45:36;;;;;;;1.57;1.30;;;17.30;99.90;;;;;;5051226;28;20460;-73
2024/03/15 10:48:03;;;;;;;1.47;1.27;;;17.10;99.90;;;;;;5042259;28;20459;-72
2024/03/15 10:50:30;;;;;;;1.50;1.40;;;17.00;99.90;;;;;;5041551;28;20460;-73
2024/03/15 10:52:57;;;;;;;1.53;1.43;;;16.90;99.90;;;;;;5047967;28;20479;-73
2024/03/15 10:55:24;;;;;;;1.93;1.00;;;16.90;99.90;;;;;;5044452;28;20550;-72
2024/03/15 10:57:52;;;;;;;1.60;1.20;;;16.70;99.90;;;;;;5047812;28;20455;-72
2024/03/15 11:00:19;;;;;;;2.87;1.70;;;16.60;99.90;;;;;;5043415;28;20491;-72
2024/03/15 11:02:47;;;;;;;2.80;1.50;;;16.60;99.90;;;;;;5049981;28;20476;-73
2024/03/15 11:05:15;;;;;;;1.10;1.00;;;16.60;99.90;;;;;;5042447;28;20459;-73
2024/03/15 11:07:42;;;;;;;2.40;1.60;;;16.60;99.90;;;;;;5050083;28;20460;-72
2024/03/15 11:10:10;;;;;;;4.20;1.47;;;16.60;99.90;;;;;;5041846;28;20459;-72
2024/03/15 11:12:38;;;;;;;1.40;1.30;;;16.60;99.90;;;;;;5046000;28;20563;-72
2024/03/15 11:15:11;;;;;;;1.60;1.50;;;16.60;99.90;;;;;;5021921;28;20516;-72
2024/03/15 11:17:37;;;;;;;2.23;1.20;;;16.70;99.90;;;;;;5052112;28;20459;-72
2024/03/15 11:20:05;;;;;;;2.50;1.20;;;16.80;99.90;;;;;;5040361;28;20499;-72
2024/03/15 11:22:32;;;;;;;3.57;1.80;;;16.90;99.90;;;;;;5051220;28;20485;-72
2024/03/15 11:24:59;;;;;;;1.60;1.43;;;17.10;99.90;;;;;;5053605;28;20454;-71
2024/03/15 11:27:27;;;;;;;3.70;1.50;;;17.20;99.90;;;;;;5051165;28;20470;-72
2024/03/15 11:29:56;;;;;;;1.60;1.50;;;17.30;99.90;;;;;;5053446;28;20538;-72
2024/03/15 11:32:22;;;;;;;1.47;1.37;;;17.80;99.90;;;;;;5053049;28;20483;-72
2024/03/15 11:34:49;;;;;;;1.97;1.47;;;18.50;99.90;;;;;;5041912;28;20459;-72
2024/03/15 11:37:22;;;;;;;2.33;1.57;;;19.00;99.90;;;;;;5041696;28;20485;-72
2024/03/15 11:39:57;;;;;;;2.70;1.20;;;19.40;99.90;;;;;;5047982;28;21013;-73
2024/03/15 11:42:24;;;;;;;2.03;1.20;;;19.70;99.90;;;;;;5042132;28;20486;-72
2024/03/15 11:44:50;;;;;;;1.53;1.20;;;19.70;99.90;;;;;;5045647;28;20844;-72
2024/03/15 11:47:17;;;;;;;1.73;1.50;;;19.70;99.90;;;;;;5041834;28;20460;-72
2024/03/15 11:49:44;;;;;;;4.33;1.80;;;19.50;99.90;;;;;;5049365;28;20459;-73
2024/03/15 11:52:11;;;;;;;1.70;1.30;;;19.30;99.90;;;;;;5040123;28;20482;-72
2024/03/15 11:54:38;;;;;;;2.93;1.37;;;19.20;99.90;;;;;;5053461;28;20462;-72
2024/03/15 11:57:05;;;;;;;1.73;1.57;;;19.10;99.90;;;;;;5057223;28;20470;-72
2024/03/15 11:59:32;;;;;;;1.80;1.30;;;19.00;99.90;;;;;;5052922;28;20458;-72
2024/03/15 12:01:58;;;;;;;2.00;1.53;;;18.90;99.90;;;;;;5052443;28;20490;-72
2024/03/15 12:04:25;;;;;;;2.47;1.40;;;19.30;99.90;;;;;;5052732;28;20468;-72
2024/03/15 12:06:52;;;;;;;1.47;1.17;;;19.40;99.80;;;;;;5053015;28;20462;-73
2024/03/15 12:09:19;;;;;;;1.20;1.10;;;19.20;99.90;;;;;;5052407;28;20846;-72
2024/03/15 12:11:46;;;;;;;1.30;1.20;;;19.20;99.90;;;;;;5051438;28;20479;-72
2024/03/15 12:14:13;;;;;;;1.53;1.20;;;19.20;99.80;;;;;;5042756;28;20461;-73
2024/03/15 12:16:42;;;;;;;1.40;1.23;;;19.00;99.80;;;;;;5052407;28;20462;-71
2024/03/15 12:19:14;;;;;;;2.30;1.30;;;18.80;99.90;;;;;;5042154;28;20539;-72
2024/03/15 12:21:41;;;;;;;1.83;1.57;;;18.50;99.90;;;;;;5052732;28;20486;-73
2024/03/15 12:24:08;;;;;;;2.03;1.27;;;18.20;99.90;;;;;;5039455;28;20482;-71
2024/03/15 12:26:35;;;;;;;1.73;1.30;;;17.90;99.90;;;;;;5049631;28;20468;-73
2024/03/15 12:29:02;;;;;;;3.73;1.53;;;17.70;99.90;;;;;;5044611;28;20459;-72
2024/03/15 12:31:29;;;;;;;1.10;1.00;;;17.40;99.90;;;;;;5045082;28;20481;-72
2024/03/15 12:33:55;;;;;;;1.33;1.23;;;17.20;99.90;;;;;;5052339;28;20465;-73
2024/03/15 12:36:22;;;;;;;3.03;1.47;;;17.00;99.90;;;;;;5052527;28;20466;-72
2024/03/15 12:38:55;;;;;;;1.67;1.30;;;17.10;99.90;;;;;;5050331;28;20461;-72
2024/03/15 12:41:22;;;;;;;1.60;1.20;;;17.50;99.90;;;;;;5052682;28;20836;-72
2024/03/15 12:43:49;;;;;;;1.17;1.07;;;18.10;99.90;;;;;;5050071;28;20462;-72
2024/03/15 12:46:19;;;;;;;1.77;1.13;;;18.40;99.90;;;;;;5052793;28;20462;-73
2024/03/15 12:48:46;;;;;;;1.27;1.13;;;18.00;99.90;;;;;;5051768;28;20463;-72
2024/03/15 12:51:12;;;;;;;2.00;1.70;;;17.50;99.90;;;;;;5038428;28;20859;-73